Nearby METAR Reports

 

ENRY - Rygge (nor-Afb), Norway
Distance from station: SØ 12km
Oppdatert: 15/08/2018 15:20
Delvis skyet
Delvis skyet
 Vind fra S
Vind: S 19 km/h
Temperatur: 19°C
Duggpunkt: 12°C
Fuktighet: 64%
Barometer: 1012 hPa
Clouds: Delvis skyet
Visibility: 10 km
Cloud details: Few Clouds 732 m
Delvis skyet 1554 m
2018/08/15 13:20 ENRY 151320Z 19010KT 160V220 9999 FEW024 SCT051 19/12 Q1012 NOSIG
ENTO - Torp (civ/Nor-Af, Norway
Distance from station: SV 34km
Oppdatert: 15/08/2018 15:20
Delvis skyet
Delvis skyet
 Vind fra S
Vind: S 26 km/h
Temperatur: 20°C
Duggpunkt: 12°C
Fuktighet: 60%
Barometer: 1011 hPa
Clouds: Delvis skyet
Visibility: 10 km
Cloud details: Delvis skyet 823 m
2018/08/15 13:20 ENTO 151320Z 17014KT 9999 SCT027 20/12 Q1011
 
ENNO - Notodden, Norway
Distance from station: V 80km
Oppdatert: 15/08/2018 14:50
Hovedsaklig skyet
Hovedsaklig skyet
 Vind fra ØSØ
Vind: ØSØ 19 km/h
Temperatur: 21°C
Duggpunkt: 13°C
Fuktighet: 60%
Barometer: 1010 hPa
Clouds: Hovedsaklig skyet
Visibility: 10 km
Cloud details: Hovedsaklig skyet 1067 m
2018/08/15 12:50 ENNO 151250Z 11010KT 090V170 9999 BKN035 21/13 Q1010
ENGM - Oslo/Gardermoen, Norway
Distance from station: NNØ 88km
Oppdatert: 15/08/2018 15:20
Hovedsaklig skyet
Hovedsaklig skyet
 Vind fra SV
Vind: SV 13 km/h
Temperatur: 18°C
Duggpunkt: 11°C
Fuktighet: 64%
Barometer: 1011 hPa
Clouds: Hovedsaklig skyet
Visibility: 10 km
Cloud details: Few Clouds 792 m
Hovedsaklig skyet 1036 m
2018/08/15 13:20 ENGM 151320Z 22007KT 190V250 9999 FEW026 BKN034 18/11 Q1011 NOSIG
 
ESOK - Karlstad North, Sweden
Distance from station: Ø 153km
Oppdatert: 15/08/2018 15:20
Delvis skyet
Delvis skyet
 Vind fra SSV
Vind: SSV 15 km/h
Temperatur: 19°C
Duggpunkt: 12°C
Fuktighet: 64%
Barometer: 1012 hPa
Clouds: Delvis skyet
Visibility: 10 km
Cloud details: Delvis skyet 1372 m
2018/08/15 13:20 ESOK 151320Z 20008KT 9999 SCT045 19/12 Q1012
ESST - Torsby, Sweden
Distance from station: ØNØ 154km
Oppdatert: 15/08/2018 15:20
Few Clouds
Few Clouds
 Vind fra SSØ
Vind: SSØ 13 km/h
Temperatur: 20°C
Duggpunkt: 12°C
Fuktighet: 60%
Barometer: 1012 hPa
Clouds: Few Clouds
Visibility: 10 km
Cloud details: Few Clouds 1189 m
2018/08/15 13:20 ESST 151320Z AUTO 15007KT 090V170 9999 FEW039/// 20/12 Q1012
 
ESGT - Trollhattan (pvt, Sweden
Distance from station: SØ 159km
Oppdatert: 15/08/2018 15:20
Nearby showers, Hovedsaklig skyet
Nearby showers, Hovedsaklig skyet
 Vind fra SV
Vind: SV 20 km/h
Temperatur: 20°C
Duggpunkt: 15°C
Fuktighet: 73%
Barometer: 1013 hPa
Oversikt: Nearby Showers
Clouds: Hovedsaklig skyet
Visibility: 10 km
Cloud details: Few Clouds 762 m
Delvis skyet 1067 m
Hovedsaklig skyet 1402 m
2018/08/15 13:20 ESGT 151320Z 22011KT 9999 VCSH FEW025 SCT035 BKN046 20/15 Q1013
ESIB - Satenas (swe-Afb, Sweden
Distance from station: SØ 164km
Oppdatert: 15/08/2018 15:20
Hovedsaklig skyet
Hovedsaklig skyet
 Vind fra V
Vind: V 11 km/h
Temperatur: 20°C
Duggpunkt: 14°C
Fuktighet: 69%
Barometer: 1013 hPa
Clouds: Hovedsaklig skyet
Visibility: 10 km
Cloud details: Hovedsaklig skyet 1494 m
Hovedsaklig skyet 1951 m
2018/08/15 13:20 ESIB 151320Z AUTO 26006KT 9999 BKN049/// BKN064/// 20/14 Q1013